NCAR-RAP Real-Time Weather Data

Output produced by METARs form (10 April 2020  07:17 UTC)
found at http://weather.rap.ucar.edu/surface/
 
KMFD 100652Z AUTO 27010KT 10SM CLR 01/M04 A2971 RMK AO2 SLP066 T00111044 $